createdAt,value
2022-11-16T00:02:11.146Z,8.50
2022-11-16T00:04:38.079Z,8.70
2022-11-16T00:07:04.930Z,8.30
2022-11-16T00:09:32.597Z,8.50
2022-11-16T00:12:03.186Z,8.30
2022-11-16T00:14:32.132Z,8.40
2022-11-16T00:16:59.020Z,8.30
2022-11-16T00:19:27.376Z,8.40
2022-11-16T00:21:54.132Z,7.90
2022-11-16T00:24:22.082Z,8.10
2022-11-16T00:26:49.887Z,8.40
2022-11-16T00:29:19.544Z,8.10
2022-11-16T00:31:46.123Z,8.20
2022-11-16T00:34:13.464Z,7.60
2022-11-16T00:36:40.039Z,7.80
2022-11-16T00:39:06.714Z,7.90
2022-11-16T00:41:33.249Z,8.00
2022-11-16T00:43:59.815Z,7.80
2022-11-16T00:46:26.336Z,7.90
2022-11-16T00:48:53.077Z,7.70
2022-11-16T00:51:19.581Z,7.70
2022-11-16T00:53:46.268Z,7.60
2022-11-16T00:56:12.884Z,7.40
2022-11-16T00:58:43.221Z,7.70
2022-11-16T01:01:11.794Z,7.80
2022-11-16T01:03:38.962Z,7.90
2022-11-16T01:06:08.228Z,8.10
2022-11-16T01:08:36.658Z,8.10
2022-11-16T01:11:23.111Z,8.30
2022-11-16T01:13:49.879Z,8.00
2022-11-16T01:16:17.881Z,8.10
2022-11-16T01:18:47.661Z,8.20
2022-11-16T01:21:14.197Z,7.90
2022-11-16T01:23:40.773Z,7.80
2022-11-16T01:26:07.301Z,8.00
2022-11-16T01:28:36.399Z,8.30
2022-11-16T01:31:03.691Z,8.50
2022-11-16T01:33:33.724Z,8.10
2022-11-16T01:36:00.482Z,7.90
2022-11-16T01:38:29.807Z,7.70
2022-11-16T01:40:57.119Z,7.80
2022-11-16T01:43:27.032Z,7.60
2022-11-16T01:46:00.058Z,7.90
2022-11-16T01:48:29.473Z,7.80
2022-11-16T01:50:57.547Z,7.60
2022-11-16T01:53:24.703Z,7.70
2022-11-16T01:55:55.573Z,7.50
2022-11-16T01:58:30.017Z,7.80
2022-11-16T02:01:03.440Z,8.10
2022-11-16T02:03:41.189Z,8.00
2022-11-16T02:06:14.302Z,8.00
2022-11-16T02:09:15.542Z,8.00
2022-11-16T02:12:03.064Z,8.20
2022-11-16T02:14:29.634Z,8.30
2022-11-16T02:17:32.296Z,8.30
2022-11-16T02:20:08.288Z,8.10
2022-11-16T02:23:03.062Z,8.00
2022-11-16T02:25:57.642Z,7.90
2022-11-16T02:28:37.760Z,7.80
2022-11-16T02:31:06.437Z,7.60
2022-11-16T02:33:38.300Z,7.50
2022-11-16T02:36:07.709Z,7.40
2022-11-16T02:38:38.965Z,7.50
2022-11-16T02:41:09.150Z,7.40
2022-11-16T02:43:45.452Z,7.50
2022-11-16T02:46:28.943Z,7.50
2022-11-16T02:48:58.440Z,7.40
2022-11-16T02:51:27.401Z,7.30
2022-11-16T02:54:12.661Z,7.60
2022-11-16T02:56:57.838Z,7.50
2022-11-16T02:59:33.192Z,7.40
2022-11-16T03:02:16.490Z,7.70
2022-11-16T03:04:49.954Z,7.70
2022-11-16T03:07:20.553Z,7.60
2022-11-16T03:09:48.970Z,7.70
2022-11-16T03:12:21.275Z,7.60
2022-11-16T03:14:58.704Z,7.70
2022-11-16T03:17:38.567Z,7.90
2022-11-16T03:20:26.907Z,7.40
2022-11-16T03:23:02.236Z,7.50
2022-11-16T03:25:36.523Z,7.60
2022-11-16T03:28:36.635Z,7.80
2022-11-16T03:31:29.979Z,8.00
2022-11-16T03:34:00.370Z,7.90
2022-11-16T03:36:33.897Z,7.80
2022-11-16T03:39:11.599Z,8.00
2022-11-16T03:41:41.841Z,8.00
2022-11-16T03:44:10.877Z,8.10
2022-11-16T03:46:39.744Z,8.00
2022-11-16T03:49:06.327Z,8.00
2022-11-16T03:51:36.019Z,8.00
2022-11-16T03:54:03.700Z,8.00
2022-11-16T03:56:31.266Z,8.00
2022-11-16T03:58:57.920Z,8.00
2022-11-16T04:01:24.490Z,8.30
2022-11-16T04:03:51.097Z,8.50
2022-11-16T04:06:38.009Z,8.40
2022-11-16T04:09:23.695Z,8.20
2022-11-16T04:12:09.642Z,8.20
2022-11-16T04:14:56.915Z,8.30
2022-11-16T04:17:44.822Z,8.10
2022-11-16T04:20:32.705Z,8.10
2022-11-16T04:23:22.807Z,8.10
2022-11-16T04:25:52.065Z,8.20
2022-11-16T04:28:25.130Z,8.10
2022-11-16T04:31:17.088Z,8.10
2022-11-16T04:34:15.747Z,8.00
2022-11-16T04:37:06.417Z,8.10
2022-11-16T04:39:33.031Z,8.20
2022-11-16T04:42:14.680Z,8.20
2022-11-16T04:45:01.597Z,8.20
2022-11-16T04:47:34.313Z,8.40
2022-11-16T04:50:02.121Z,8.20
2022-11-16T04:52:28.904Z,8.30
2022-11-16T04:54:56.043Z,8.50
2022-11-16T04:57:23.229Z,8.40
2022-11-16T04:59:50.356Z,8.20
2022-11-16T05:02:17.451Z,8.30
2022-11-16T05:04:49.393Z,8.20
2022-11-16T05:07:17.397Z,8.20
2022-11-16T05:09:47.339Z,8.30
2022-11-16T05:12:19.228Z,8.30
2022-11-16T05:14:47.448Z,8.20
2022-11-16T05:17:16.618Z,8.20
2022-11-16T05:20:01.838Z,8.30
2022-11-16T05:22:33.020Z,8.40
2022-11-16T05:25:01.401Z,8.50
2022-11-16T05:27:29.259Z,8.50
2022-11-16T05:29:55.865Z,8.30
2022-11-16T05:32:24.548Z,8.50
2022-11-16T05:34:53.475Z,8.40
2022-11-16T05:37:21.079Z,8.40
2022-11-16T05:39:48.453Z,8.60
2022-11-16T05:42:16.352Z,8.40
2022-11-16T05:44:43.363Z,8.30
2022-11-16T05:47:10.162Z,8.40
2022-11-16T05:49:37.917Z,8.60
2022-11-16T05:52:04.650Z,8.60
2022-11-16T05:54:31.408Z,8.60
2022-11-16T05:56:58.092Z,8.60
2022-11-16T05:59:24.783Z,8.60
2022-11-16T06:01:54.469Z,8.60
2022-11-16T06:04:24.132Z,8.70
2022-11-16T06:06:50.881Z,9.00
2022-11-16T06:09:18.583Z,8.80
2022-11-16T06:11:46.115Z,8.90
2022-11-16T06:14:12.682Z,9.00
2022-11-16T06:16:39.463Z,8.90
2022-11-16T06:19:08.750Z,8.70
2022-11-16T06:21:36.147Z,8.60
2022-11-16T06:24:09.286Z,8.70
2022-11-16T06:26:37.126Z,9.00
2022-11-16T06:29:04.466Z,8.90
2022-11-16T06:31:32.926Z,9.10
2022-11-16T06:34:01.572Z,9.10
2022-11-16T06:36:29.360Z,9.10
2022-11-16T06:38:59.868Z,9.10
2022-11-16T06:41:28.029Z,9.30
2022-11-16T06:43:55.173Z,9.10
2022-11-16T06:46:26.136Z,9.20
2022-11-16T06:48:53.390Z,9.10
2022-11-16T06:51:20.018Z,9.00
2022-11-16T06:53:47.523Z,9.10
2022-11-16T06:56:15.765Z,9.00
2022-11-16T06:58:47.622Z,9.00
2022-11-16T07:01:15.321Z,9.00
2022-11-16T07:03:44.227Z,8.80
2022-11-16T07:06:13.173Z,8.90
2022-11-16T07:08:42.400Z,9.10
2022-11-16T07:11:11.179Z,9.20
2022-11-16T07:13:38.911Z,9.00
2022-11-16T07:16:08.379Z,8.80
2022-11-16T07:18:36.863Z,9.00
2022-11-16T07:21:12.440Z,9.10
2022-11-16T07:23:39.391Z,8.70
2022-11-16T07:26:09.273Z,8.60
2022-11-16T07:28:47.771Z,8.40
2022-11-16T07:31:18.470Z,8.50
2022-11-16T07:33:45.973Z,8.40
2022-11-16T07:36:15.698Z,8.50
2022-11-16T07:38:42.548Z,8.70
2022-11-16T07:41:12.556Z,8.60
2022-11-16T07:43:52.832Z,8.80
2022-11-16T07:49:18.488Z,9.00
2022-11-16T07:51:54.807Z,8.90
2022-11-16T07:54:40.510Z,8.80
2022-11-16T07:57:07.953Z,8.50
2022-11-16T07:59:34.847Z,8.60
2022-11-16T08:02:03.331Z,8.60
2022-11-16T08:04:30.590Z,8.70
2022-11-16T08:06:58.568Z,8.60
2022-11-16T08:09:27.528Z,8.70
2022-11-16T08:11:54.864Z,8.60
2022-11-16T08:14:22.459Z,8.60
2022-11-16T08:16:50.364Z,8.50
2022-11-16T08:19:17.630Z,8.50
2022-11-16T08:21:45.678Z,8.50
2022-11-16T08:24:13.733Z,8.60
2022-11-16T08:26:42.392Z,8.50
2022-11-16T08:29:12.060Z,8.40
2022-11-16T08:31:44.059Z,8.40
2022-11-16T08:34:13.523Z,8.50
2022-11-16T08:36:43.963Z,8.60
2022-11-16T08:39:11.282Z,8.70
2022-11-16T08:41:37.985Z,8.80
2022-11-16T08:44:07.585Z,8.80
2022-11-16T08:46:37.587Z,8.70
2022-11-16T08:49:20.285Z,8.50
2022-11-16T08:51:47.197Z,8.60
2022-11-16T08:54:13.801Z,8.60
2022-11-16T08:56:42.041Z,8.60
2022-11-16T08:59:09.359Z,8.50
2022-11-16T09:01:40.136Z,8.50
2022-11-16T09:04:06.713Z,8.20
2022-11-16T09:06:33.335Z,8.50
2022-11-16T09:09:00.035Z,8.70
2022-11-16T09:11:26.766Z,8.50
2022-11-16T09:13:54.599Z,8.80
2022-11-16T09:16:21.622Z,8.90
2022-11-16T09:18:49.793Z,8.90
2022-11-16T09:21:21.040Z,8.80
2022-11-16T09:23:48.775Z,8.90
2022-11-16T09:26:15.611Z,8.70
2022-11-16T09:28:42.263Z,8.90
2022-11-16T09:31:10.106Z,8.70
2022-11-16T09:33:37.417Z,8.40
2022-11-16T09:36:09.319Z,8.40
2022-11-16T09:39:05.548Z,8.40
2022-11-16T09:42:04.678Z,8.40
2022-11-16T09:44:37.820Z,8.40
2022-11-16T09:47:09.446Z,8.20
2022-11-16T09:49:39.676Z,8.20
2022-11-16T09:52:11.181Z,8.10
2022-11-16T09:54:40.495Z,8.10
2022-11-16T09:57:12.609Z,8.30
2022-11-16T09:59:50.739Z,8.00
2022-11-16T10:02:56.950Z,8.10
2022-11-16T10:05:36.821Z,7.80
2022-11-16T10:08:26.280Z,7.60
2022-11-16T10:11:19.201Z,7.70
2022-11-16T10:14:04.188Z,7.90
2022-11-16T10:17:08.404Z,8.00
2022-11-16T10:19:55.272Z,8.20
2022-11-16T10:22:37.110Z,8.10
2022-11-16T10:25:10.769Z,8.10
2022-11-16T10:27:50.593Z,8.20
2022-11-16T10:30:21.856Z,7.90
2022-11-16T10:33:21.122Z,8.00
2022-11-16T10:35:54.544Z,8.20
2022-11-16T10:38:24.026Z,8.50
2022-11-16T10:40:55.272Z,8.50
2022-11-16T10:43:27.310Z,8.40
2022-11-16T10:46:15.586Z,8.10
2022-11-16T10:48:57.625Z,8.10
2022-11-16T10:51:24.249Z,8.30
2022-11-16T10:53:52.970Z,8.50
2022-11-16T10:56:28.670Z,8.60
2022-11-16T10:58:57.829Z,8.30
2022-11-16T11:01:35.918Z,7.90
2022-11-16T11:04:20.796Z,8.10
2022-11-16T11:06:51.373Z,8.20
2022-11-16T11:09:24.098Z,8.30
2022-11-16T11:12:19.431Z,8.50
2022-11-16T11:15:25.600Z,8.30
2022-11-16T11:18:26.520Z,8.30
2022-11-16T11:21:06.508Z,8.30
2022-11-16T11:23:43.494Z,8.30
2022-11-16T11:26:36.198Z,8.50
2022-11-16T11:29:16.579Z,8.50
2022-11-16T11:31:46.283Z,8.40
2022-11-16T11:34:18.225Z,8.50
2022-11-16T11:37:00.109Z,8.40
2022-11-16T11:39:32.833Z,8.40
2022-11-16T11:42:05.625Z,8.50
2022-11-16T11:44:37.114Z,8.40
2022-11-16T11:50:55.636Z,8.40
2022-11-16T11:53:34.569Z,8.30
2022-11-16T11:56:01.519Z,8.30
2022-11-16T11:58:31.420Z,8.40
2022-11-16T12:01:25.582Z,8.60
2022-11-16T12:04:07.645Z,8.60
2022-11-16T12:07:05.915Z,8.30
2022-11-16T12:10:09.830Z,8.50
2022-11-16T12:12:48.928Z,8.30
2022-11-16T12:15:24.314Z,8.30
2022-11-16T12:18:02.918Z,8.40
2022-11-16T12:21:00.534Z,8.50
2022-11-16T12:23:30.168Z,8.60
2022-11-16T12:25:59.695Z,8.60
2022-11-16T12:28:37.632Z,8.50
2022-11-16T12:31:20.287Z,8.40
2022-11-16T12:34:11.469Z,8.40
2022-11-16T12:37:20.194Z,8.70
2022-11-16T12:40:10.325Z,8.80
2022-11-16T12:42:54.955Z,8.70
2022-11-16T12:45:32.895Z,8.70
2022-11-16T12:48:08.472Z,8.80
2022-11-16T12:50:58.144Z,8.70
2022-11-16T12:53:58.061Z,8.80
2022-11-16T12:56:37.724Z,8.60
2022-11-16T12:59:28.687Z,8.40
2022-11-16T13:02:16.279Z,8.70
2022-11-16T13:04:46.255Z,8.80
2022-11-16T13:07:16.077Z,8.70
2022-11-16T13:09:49.259Z,8.80
2022-11-16T13:12:17.400Z,9.00
2022-11-16T13:14:48.154Z,8.90
2022-11-16T13:17:21.486Z,8.90
2022-11-16T13:20:02.157Z,8.70
2022-11-16T13:22:29.355Z,8.70
2022-11-16T13:25:15.053Z,8.80
2022-11-16T13:27:49.396Z,8.80
2022-11-16T13:30:29.388Z,8.90
2022-11-16T13:33:26.962Z,9.00
2022-11-16T13:35:53.601Z,9.00
2022-11-16T13:38:54.723Z,8.90
2022-11-16T13:41:31.529Z,9.00
2022-11-16T13:43:58.613Z,9.00
2022-11-16T13:49:41.447Z,9.00
2022-11-16T13:52:35.660Z,9.20
2022-11-16T13:54:59.076Z,9.10
2022-11-16T13:57:27.883Z,8.80
2022-11-16T14:00:00.520Z,8.90
2022-11-16T14:02:27.030Z,9.00
2022-11-16T14:05:13.285Z,8.80
2022-11-16T14:07:43.201Z,8.80
2022-11-16T14:10:11.225Z,9.00
2022-11-16T14:12:38.133Z,8.80
2022-11-16T14:15:22.071Z,8.80
2022-11-16T14:18:11.917Z,8.80
2022-11-16T14:20:59.252Z,8.80
2022-11-16T14:23:56.955Z,9.00
2022-11-16T14:26:44.997Z,8.90
2022-11-16T14:29:15.405Z,8.90
2022-11-16T14:31:49.759Z,8.90
2022-11-16T14:34:19.740Z,8.80
2022-11-16T14:36:47.220Z,8.80
2022-11-16T14:39:29.161Z,8.90
2022-11-16T14:41:59.446Z,8.90
2022-11-16T14:44:28.462Z,8.80
2022-11-16T14:46:56.134Z,8.90
2022-11-16T14:49:25.952Z,8.80
2022-11-16T14:51:57.310Z,8.70
2022-11-16T14:54:23.804Z,8.70
2022-11-16T14:57:00.348Z,8.70
2022-11-16T14:59:28.147Z,8.80
2022-11-16T15:01:55.169Z,8.70
2022-11-16T15:04:24.432Z,8.70
2022-11-16T15:07:01.587Z,8.70
2022-11-16T15:09:30.943Z,8.70
2022-11-16T15:12:17.261Z,8.80
2022-11-16T15:14:52.713Z,8.60
2022-11-16T15:17:22.137Z,8.50
2022-11-16T15:20:00.373Z,8.40
2022-11-16T15:22:29.507Z,8.50
2022-11-16T15:25:00.926Z,8.50
2022-11-16T15:27:38.792Z,8.50
2022-11-16T15:30:16.075Z,8.40
2022-11-16T15:32:43.895Z,8.10
2022-11-16T15:35:22.988Z,8.30
2022-11-16T15:38:20.313Z,8.30
2022-11-16T15:40:58.479Z,8.50
2022-11-16T15:43:31.118Z,8.40
2022-11-16T15:45:58.521Z,8.40
2022-11-16T15:48:26.726Z,8.40
2022-11-16T15:51:17.756Z,8.40
2022-11-16T15:53:48.895Z,8.30
2022-11-16T15:56:16.880Z,8.30
2022-11-16T15:58:43.572Z,8.40
2022-11-16T16:01:12.224Z,8.40
2022-11-16T16:03:39.302Z,8.50
2022-11-16T16:06:07.673Z,8.70
2022-11-16T16:08:36.650Z,8.50
2022-11-16T16:11:19.371Z,8.10
2022-11-16T16:14:01.106Z,8.00
2022-11-16T16:16:37.992Z,8.10
2022-11-16T16:19:10.059Z,8.30
2022-11-16T16:21:45.016Z,8.30
2022-11-16T16:24:37.382Z,8.40
2022-11-16T16:27:13.037Z,8.40
2022-11-16T16:29:39.892Z,8.20
2022-11-16T16:32:09.861Z,8.20
2022-11-16T16:34:39.256Z,8.10
2022-11-16T16:37:10.806Z,8.10
2022-11-16T16:39:38.609Z,8.10
2022-11-16T16:42:10.585Z,8.10
2022-11-16T16:44:37.139Z,8.20
2022-11-16T16:47:03.790Z,8.30
2022-11-16T16:49:30.300Z,8.40
2022-11-16T16:51:56.925Z,8.40
2022-11-16T16:54:23.836Z,8.50
2022-11-16T16:56:50.442Z,8.50
2022-11-16T16:59:17.031Z,8.70
2022-11-16T17:01:43.567Z,8.60
2022-11-16T17:04:10.108Z,8.40
2022-11-16T17:06:36.702Z,8.60
2022-11-16T17:09:03.635Z,8.40
2022-11-16T17:11:30.155Z,8.20
2022-11-16T17:13:56.752Z,8.20
2022-11-16T17:16:23.341Z,8.20
2022-11-16T17:18:54.875Z,8.40
2022-11-16T17:21:21.802Z,8.20
2022-11-16T17:23:48.428Z,8.20
2022-11-16T17:26:14.922Z,8.30
2022-11-16T17:28:41.891Z,8.50
2022-11-16T17:31:10.185Z,8.60
2022-11-16T17:33:38.132Z,8.30
2022-11-16T17:36:06.097Z,8.30
2022-11-16T17:38:33.535Z,8.20
2022-11-16T17:41:21.735Z,8.40
2022-11-16T17:43:51.540Z,8.30
2022-11-16T17:46:19.099Z,8.40
2022-11-16T17:48:47.053Z,8.10
2022-11-16T17:51:16.079Z,8.30
2022-11-16T17:53:45.404Z,8.20
2022-11-16T17:56:14.079Z,8.40
2022-11-16T17:58:40.978Z,8.50
2022-11-16T18:01:07.795Z,8.40
2022-11-16T18:03:38.348Z,8.50
2022-11-16T18:06:07.493Z,8.00
2022-11-16T18:08:34.693Z,8.10
2022-11-16T18:11:09.738Z,8.20
2022-11-16T18:13:36.535Z,8.10
2022-11-16T18:16:08.967Z,8.00
2022-11-16T18:18:36.163Z,8.10
2022-11-16T18:21:02.678Z,8.10
2022-11-16T18:23:29.222Z,8.10
2022-11-16T18:25:55.833Z,8.00
2022-11-16T18:28:22.921Z,8.10
2022-11-16T18:30:49.622Z,8.20
2022-11-16T18:33:16.589Z,8.10
2022-11-16T18:35:43.678Z,8.20
2022-11-16T18:38:13.160Z,8.20
2022-11-16T18:40:40.283Z,8.00
2022-11-16T18:43:12.324Z,8.10
2022-11-16T18:45:38.886Z,8.10
2022-11-16T18:48:05.440Z,8.00
2022-11-16T18:50:32.013Z,8.10
2022-11-16T18:52:58.526Z,8.20
2022-11-16T18:55:25.017Z,8.20
2022-11-16T18:57:51.565Z,8.20
2022-11-16T19:00:19.401Z,8.10
2022-11-16T19:02:45.946Z,8.20
2022-11-16T19:05:12.568Z,8.10
2022-11-16T19:07:39.216Z,8.20
2022-11-16T19:10:06.321Z,8.30
2022-11-16T19:12:32.852Z,8.50
2022-11-16T19:14:59.513Z,8.40
2022-11-16T19:17:26.970Z,8.20
2022-11-16T19:19:53.485Z,8.30
2022-11-16T19:22:20.466Z,8.40
2022-11-16T19:24:46.990Z,8.30
2022-11-16T19:27:13.562Z,8.20
2022-11-16T19:29:40.135Z,8.10
2022-11-16T19:32:06.648Z,8.20
2022-11-16T19:34:33.598Z,8.30
2022-11-16T19:37:00.435Z,8.30
2022-11-16T19:39:27.068Z,8.30
2022-11-16T19:41:53.616Z,8.50
2022-11-16T19:44:20.164Z,8.30
2022-11-16T19:46:46.740Z,8.30
2022-11-16T19:49:19.955Z,8.20
2022-11-16T19:51:47.121Z,8.50
2022-11-16T19:54:14.785Z,8.60
2022-11-16T19:56:42.006Z,8.60
2022-11-16T19:59:08.580Z,8.40
2022-11-16T20:01:35.453Z,8.10
2022-11-16T20:04:06.008Z,7.90
2022-11-16T20:06:35.303Z,8.10
2022-11-16T20:11:43.792Z,7.90
2022-11-16T20:14:11.763Z,8.00
2022-11-16T20:16:40.403Z,8.10
2022-11-16T20:19:08.342Z,8.00
2022-11-16T20:21:39.837Z,8.10
2022-11-16T20:24:08.914Z,8.10
2022-11-16T20:26:36.873Z,7.90
2022-11-16T20:29:03.667Z,7.60
2022-11-16T20:31:31.915Z,7.80
2022-11-16T20:33:59.892Z,7.80
2022-11-16T20:36:28.326Z,7.80
2022-11-16T20:38:56.064Z,7.70
2022-11-16T20:41:24.922Z,7.70
2022-11-16T20:43:53.268Z,7.70
2022-11-16T20:46:22.551Z,7.90
2022-11-16T20:48:49.741Z,8.00
2022-11-16T20:51:17.858Z,7.90
2022-11-16T20:53:45.151Z,7.80
2022-11-16T20:56:12.570Z,7.70
2022-11-16T20:58:39.796Z,7.80
2022-11-16T21:01:08.995Z,7.60
2022-11-16T21:03:36.164Z,7.50
2022-11-16T21:06:03.292Z,7.70
2022-11-16T21:08:30.046Z,7.80
2022-11-16T21:10:57.203Z,7.80
2022-11-16T21:13:42.379Z,7.80
2022-11-16T21:16:11.751Z,7.30
2022-11-16T21:18:39.438Z,7.20
2022-11-16T21:21:08.033Z,7.60
2022-11-16T21:23:35.998Z,7.90
2022-11-16T21:26:35.557Z,7.70
2022-11-16T21:29:02.143Z,7.60
2022-11-16T21:31:31.630Z,7.50
2022-11-16T21:34:00.567Z,7.60
2022-11-16T21:36:28.509Z,7.30
2022-11-16T21:38:55.553Z,7.40
2022-11-16T21:41:23.153Z,7.40
2022-11-16T21:43:49.782Z,7.60
2022-11-16T21:46:18.362Z,7.50
2022-11-16T21:48:45.078Z,7.50
2022-11-16T21:51:16.941Z,7.60
2022-11-16T21:53:43.667Z,7.30
2022-11-16T21:56:18.504Z,7.40
2022-11-16T21:58:45.515Z,7.30
2022-11-16T22:01:12.913Z,7.40
2022-11-16T22:03:39.811Z,7.30
2022-11-16T22:06:26.009Z,7.20
2022-11-16T22:08:52.796Z,7.10
2022-11-16T22:11:21.974Z,7.20
2022-11-16T22:13:49.345Z,7.10
2022-11-16T22:16:19.730Z,7.10
2022-11-16T22:18:46.296Z,7.20
2022-11-16T22:21:12.885Z,7.30
2022-11-16T22:23:39.792Z,7.30
2022-11-16T22:26:09.404Z,7.10
2022-11-16T22:28:36.650Z,7.20
2022-11-16T22:31:14.362Z,7.10
2022-11-16T22:33:41.319Z,7.30
2022-11-16T22:36:11.821Z,7.40
2022-11-16T22:38:38.360Z,7.30
2022-11-16T22:41:05.388Z,7.10
2022-11-16T22:43:32.726Z,7.00
2022-11-16T22:46:00.867Z,6.60
2022-11-16T22:48:38.704Z,6.70
2022-11-16T22:51:15.033Z,6.80
2022-11-16T22:53:41.583Z,6.60
2022-11-16T22:56:09.440Z,6.80
2022-11-16T22:58:37.160Z,6.70
2022-11-16T23:01:04.835Z,6.50
2022-11-16T23:03:31.653Z,6.40
2022-11-16T23:05:58.471Z,6.20
2022-11-16T23:08:25.301Z,6.30
2022-11-16T23:11:25.813Z,6.30
2022-11-16T23:14:11.938Z,6.40
2022-11-16T23:16:39.591Z,6.20
2022-11-16T23:19:25.159Z,6.20
2022-11-16T23:22:10.525Z,6.40
2022-11-16T23:24:55.597Z,6.50
2022-11-16T23:27:31.315Z,6.10
2022-11-16T23:29:58.828Z,6.10
2022-11-16T23:32:25.549Z,6.00
2022-11-16T23:34:52.085Z,5.90
2022-11-16T23:37:18.625Z,5.90
2022-11-16T23:39:45.134Z,6.00
2022-11-16T23:42:31.900Z,6.00
2022-11-16T23:44:58.389Z,6.00
2022-11-16T23:47:25.199Z,6.00
2022-11-16T23:50:16.336Z,6.20
2022-11-16T23:52:42.948Z,6.20
2022-11-16T23:55:09.562Z,6.30
2022-11-16T23:57:36.122Z,6.40
